createdAt,value
2018-06-29T00:00:09.446Z,58.30
2018-06-29T00:02:38.458Z,60.30
2018-06-29T00:05:08.216Z,61.50
2018-06-29T00:07:37.218Z,61.00
2018-06-29T00:10:06.620Z,61.20
2018-06-29T00:12:35.693Z,61.30
2018-06-29T00:15:04.810Z,59.80
2018-06-29T00:17:33.768Z,59.70
2018-06-29T00:20:02.778Z,59.00
2018-06-29T00:22:31.831Z,59.20
2018-06-29T00:25:00.797Z,58.20
2018-06-29T00:27:29.849Z,59.30
2018-06-29T00:32:27.465Z,59.30
2018-06-29T00:34:56.425Z,59.50
2018-06-29T00:37:25.405Z,58.70
2018-06-29T00:39:54.621Z,59.50
2018-06-29T00:42:23.825Z,59.90
2018-06-29T00:44:52.811Z,59.50
2018-06-29T00:47:21.825Z,59.30
2018-06-29T00:49:50.853Z,59.30
2018-06-29T00:52:19.879Z,59.20
2018-06-29T00:57:17.445Z,59.60
2018-06-29T00:59:46.429Z,58.30
2018-06-29T01:02:15.449Z,58.80
2018-06-29T01:07:13.019Z,58.30
2018-06-29T01:12:10.693Z,58.90
2018-06-29T01:14:40.101Z,58.00
2018-06-29T01:17:09.228Z,56.90
2018-06-29T01:19:38.188Z,58.20
2018-06-29T01:22:07.193Z,56.60
2018-06-29T01:24:36.209Z,59.90
2018-06-29T01:27:05.203Z,58.20
2018-06-29T01:29:34.274Z,59.40
2018-06-29T01:32:03.288Z,57.20
2018-06-29T01:34:32.281Z,58.30
2018-06-29T01:37:01.261Z,58.20
2018-06-29T01:39:30.252Z,56.20
2018-06-29T01:41:59.284Z,57.40
2018-06-29T01:44:28.259Z,56.70
2018-06-29T01:46:57.241Z,57.90
2018-06-29T01:49:26.274Z,56.70
2018-06-29T01:51:55.296Z,57.50
2018-06-29T01:54:24.298Z,56.20
2018-06-29T01:56:53.296Z,56.40
2018-06-29T01:59:22.264Z,57.00
2018-06-29T02:01:51.240Z,55.90
2018-06-29T02:04:20.380Z,56.00
2018-06-29T02:06:49.381Z,57.60
2018-06-29T02:09:18.342Z,59.10
2018-06-29T02:11:47.384Z,58.30
2018-06-29T02:14:16.427Z,59.20
2018-06-29T02:16:45.444Z,60.30
2018-06-29T02:19:14.462Z,58.80
2018-06-29T02:21:43.494Z,58.90
2018-06-29T02:24:12.490Z,57.30
2018-06-29T02:29:10.075Z,57.10
2018-06-29T02:31:39.035Z,58.50
2018-06-29T02:34:08.034Z,58.70
2018-06-29T02:36:36.998Z,57.70
2018-06-29T02:39:08.679Z,59.30
2018-06-29T02:41:37.688Z,58.90
2018-06-29T02:44:06.719Z,59.10
2018-06-29T02:46:35.714Z,60.00
2018-06-29T02:54:02.335Z,60.20
2018-06-29T02:56:31.364Z,59.60
2018-06-29T02:59:00.351Z,58.70
2018-06-29T03:01:29.368Z,61.50
2018-06-29T03:03:58.398Z,60.10
2018-06-29T03:06:27.356Z,59.20
2018-06-29T03:11:25.090Z,61.90
2018-06-29T03:13:54.106Z,62.80
2018-06-29T03:16:23.095Z,62.10
2018-06-29T03:18:52.173Z,62.50
2018-06-29T03:21:21.158Z,62.60
2018-06-29T03:23:50.277Z,63.00
2018-06-29T03:26:19.263Z,62.90
2018-06-29T03:28:48.327Z,63.00
2018-06-29T03:31:17.446Z,63.00
2018-06-29T03:33:46.481Z,62.00
2018-06-29T03:36:15.469Z,64.40
2018-06-29T03:38:44.445Z,62.40
2018-06-29T03:41:13.451Z,63.50
2018-06-29T03:43:42.591Z,63.30
2018-06-29T03:46:11.887Z,61.60
2018-06-29T03:48:40.933Z,65.00
2018-06-29T03:51:09.917Z,64.30
2018-06-29T03:53:38.945Z,63.20
2018-06-29T03:56:07.984Z,64.30
2018-06-29T03:58:37.071Z,62.00
2018-06-29T04:01:06.066Z,63.30
2018-06-29T04:03:35.097Z,64.30
2018-06-29T04:06:04.111Z,64.60
2018-06-29T04:08:33.093Z,64.10
2018-06-29T04:11:02.068Z,62.10
2018-06-29T04:13:31.077Z,62.30
2018-06-29T04:16:00.040Z,64.80
2018-06-29T04:18:28.994Z,64.80
2018-06-29T04:20:58.027Z,63.10
2018-06-29T04:23:27.113Z,64.80
2018-06-29T04:25:56.102Z,61.60
2018-06-29T04:28:25.256Z,64.60
2018-06-29T04:30:54.220Z,64.40
2018-06-29T04:33:23.300Z,63.90
2018-06-29T04:35:52.464Z,64.10
2018-06-29T04:38:21.546Z,64.40
2018-06-29T04:40:50.543Z,63.30
2018-06-29T04:43:19.572Z,64.60
2018-06-29T04:45:48.552Z,63.00
2018-06-29T04:48:17.571Z,63.40
2018-06-29T04:50:46.574Z,62.90
2018-06-29T04:53:15.624Z,61.80
2018-06-29T04:55:44.596Z,62.10
2018-06-29T04:58:13.626Z,64.60
2018-06-29T05:00:42.712Z,63.20
2018-06-29T05:03:11.804Z,63.80
2018-06-29T05:05:40.858Z,63.70
2018-06-29T05:08:09.866Z,64.00
2018-06-29T05:10:38.954Z,63.20
2018-06-29T05:13:08.040Z,62.30
2018-06-29T05:15:37.792Z,61.40
2018-06-29T05:18:07.067Z,60.80
2018-06-29T05:20:36.086Z,59.00
2018-06-29T05:23:05.288Z,59.60
2018-06-29T05:25:34.598Z,58.10
2018-06-29T05:28:03.588Z,57.10
2018-06-29T05:30:32.634Z,57.00
2018-06-29T05:33:01.636Z,56.00
2018-06-29T05:35:30.764Z,56.80
2018-06-29T05:37:59.731Z,56.60
2018-06-29T05:40:28.721Z,54.30
2018-06-29T05:45:26.410Z,54.10
2018-06-29T05:47:55.521Z,53.70
2018-06-29T05:50:24.548Z,54.00
2018-06-29T05:52:53.820Z,54.50
2018-06-29T05:55:22.830Z,55.30
2018-06-29T05:57:51.882Z,55.40
2018-06-29T06:00:20.862Z,55.60
2018-06-29T06:02:49.894Z,56.00
2018-06-29T06:05:19.046Z,57.40
2018-06-29T06:07:48.050Z,57.10
2018-06-29T06:10:17.090Z,58.00
2018-06-29T06:12:46.721Z,58.00
2018-06-29T06:15:15.888Z,58.80
2018-06-29T06:17:44.980Z,58.70
2018-06-29T06:20:15.318Z,58.40
2018-06-29T06:22:44.427Z,59.50
2018-06-29T06:25:13.921Z,59.10
2018-06-29T06:27:43.004Z,59.80
2018-06-29T06:30:12.049Z,60.00
2018-06-29T06:32:41.062Z,60.00
2018-06-29T06:35:10.105Z,59.30
2018-06-29T06:37:39.120Z,59.30
2018-06-29T06:40:08.112Z,59.30
2018-06-29T06:42:37.132Z,58.80
2018-06-29T06:45:06.262Z,59.40
2018-06-29T06:47:35.286Z,59.70
2018-06-29T06:50:04.297Z,59.50
2018-06-29T06:52:33.352Z,59.40
2018-06-29T06:55:02.355Z,59.70
2018-06-29T06:57:34.955Z,59.50
2018-06-29T07:00:04.638Z,60.20
2018-06-29T07:02:33.723Z,59.10
2018-06-29T07:05:02.684Z,59.40
2018-06-29T07:07:31.682Z,59.90
2018-06-29T07:10:00.825Z,59.90
2018-06-29T07:12:29.843Z,60.70
2018-06-29T07:14:58.888Z,60.30
2018-06-29T07:17:27.982Z,60.30
2018-06-29T07:19:57.005Z,60.10
2018-06-29T07:22:26.114Z,60.10
2018-06-29T07:24:55.199Z,59.70
2018-06-29T07:27:24.230Z,60.10
2018-06-29T07:29:53.199Z,60.20
2018-06-29T07:32:22.316Z,60.80
2018-06-29T07:34:51.373Z,59.90
2018-06-29T07:37:20.365Z,60.40
2018-06-29T07:39:49.391Z,59.70
2018-06-29T07:42:18.431Z,59.70
2018-06-29T07:44:47.582Z,59.70
2018-06-29T07:47:16.609Z,60.00
2018-06-29T07:49:45.693Z,59.70
2018-06-29T07:52:14.665Z,60.00
2018-06-29T07:54:43.777Z,59.60
2018-06-29T07:57:12.912Z,60.10
2018-06-29T07:59:41.934Z,59.40
2018-06-29T08:02:10.913Z,59.10
2018-06-29T08:04:39.993Z,59.10
2018-06-29T08:07:09.049Z,59.00
2018-06-29T08:09:38.175Z,59.20
2018-06-29T08:12:07.137Z,59.40
2018-06-29T08:14:36.172Z,58.90
2018-06-29T08:17:05.189Z,58.90
2018-06-29T08:19:34.162Z,58.60
2018-06-29T08:22:03.144Z,58.50
2018-06-29T08:24:32.772Z,58.60
2018-06-29T08:27:01.793Z,58.50
2018-06-29T08:29:31.184Z,57.60
2018-06-29T08:32:00.185Z,58.10
2018-06-29T08:34:29.220Z,58.20
2018-06-29T08:36:58.408Z,58.00
2018-06-29T08:39:27.402Z,57.00
2018-06-29T08:44:25.205Z,57.30
2018-06-29T08:46:54.936Z,57.60
2018-06-29T08:51:52.573Z,57.60
2018-06-29T08:54:21.580Z,56.50
2018-06-29T08:56:50.632Z,55.80
2018-06-29T08:59:19.622Z,55.00
2018-06-29T09:01:48.592Z,54.90
2018-06-29T09:04:17.572Z,55.30
2018-06-29T09:06:46.631Z,55.60
2018-06-29T09:09:15.602Z,55.30
2018-06-29T09:11:44.554Z,54.90
2018-06-29T09:14:13.622Z,55.20
2018-06-29T09:16:42.744Z,54.00
2018-06-29T09:19:11.868Z,54.10
2018-06-29T09:21:40.948Z,54.80
2018-06-29T09:24:09.988Z,53.70
2018-06-29T09:26:38.981Z,53.80
2018-06-29T09:29:07.990Z,54.10
2018-06-29T09:31:37.201Z,53.80
2018-06-29T09:34:06.298Z,53.40
2018-06-29T09:36:35.256Z,53.30
2018-06-29T09:39:06.556Z,53.50
2018-06-29T09:41:35.614Z,53.10
2018-06-29T09:44:07.488Z,53.40
2018-06-29T09:46:39.132Z,52.80
2018-06-29T09:49:08.142Z,53.60
2018-06-29T09:51:37.118Z,52.80
2018-06-29T09:54:06.175Z,52.60
2018-06-29T09:56:35.174Z,52.50
2018-06-29T09:59:04.223Z,52.30
2018-06-29T10:01:33.212Z,53.00
2018-06-29T10:04:02.201Z,52.20
2018-06-29T10:06:31.303Z,52.00
2018-06-29T10:09:00.598Z,52.10
2018-06-29T10:11:29.616Z,52.30
2018-06-29T10:13:58.658Z,52.10
2018-06-29T10:16:27.648Z,52.00
2018-06-29T10:18:56.667Z,52.70
2018-06-29T10:21:25.726Z,52.70
2018-06-29T10:23:54.704Z,52.10
2018-06-29T10:26:23.980Z,51.40
2018-06-29T10:31:34.386Z,51.80
2018-06-29T10:34:03.420Z,51.70
2018-06-29T10:36:32.632Z,50.70
2018-06-29T10:39:01.661Z,50.10
2018-06-29T10:41:30.676Z,49.70
2018-06-29T10:43:59.618Z,50.30
2018-06-29T10:46:28.625Z,50.50
2018-06-29T10:48:57.788Z,49.90
2018-06-29T10:51:26.778Z,49.90
2018-06-29T10:56:24.474Z,49.20
2018-06-29T10:58:53.602Z,47.90
2018-06-29T11:01:22.649Z,47.60
2018-06-29T11:03:51.665Z,47.00
2018-06-29T11:06:20.659Z,46.80
2018-06-29T11:08:49.854Z,48.70
2018-06-29T11:11:19.014Z,48.10
2018-06-29T11:13:48.001Z,47.70
2018-06-29T11:16:17.008Z,47.40
2018-06-29T11:18:46.206Z,47.20
2018-06-29T11:21:15.236Z,47.70
2018-06-29T11:23:44.322Z,44.40
2018-06-29T11:26:13.371Z,45.00
2018-06-29T11:28:42.423Z,45.10
2018-06-29T11:31:11.475Z,44.90
2018-06-29T11:33:40.499Z,45.80
2018-06-29T11:36:09.529Z,45.70
2018-06-29T11:38:38.593Z,46.60
2018-06-29T11:41:07.582Z,46.10
2018-06-29T11:43:36.593Z,45.00
2018-06-29T11:46:05.625Z,45.20
2018-06-29T11:48:34.697Z,46.50
2018-06-29T11:51:03.710Z,45.80
2018-06-29T11:53:32.689Z,44.60
2018-06-29T11:56:01.726Z,44.20
2018-06-29T11:58:31.345Z,44.40
2018-06-29T12:01:00.329Z,43.20
2018-06-29T12:05:58.013Z,44.80
2018-06-29T12:08:27.045Z,42.80
2018-06-29T12:10:56.119Z,43.90
2018-06-29T12:13:25.149Z,43.20
2018-06-29T12:15:54.201Z,43.70
2018-06-29T12:18:23.231Z,43.60
2018-06-29T12:20:52.301Z,42.60
2018-06-29T12:23:21.402Z,42.40
2018-06-29T12:28:19.161Z,44.00
2018-06-29T12:30:48.267Z,42.80
2018-06-29T12:33:17.228Z,42.50
2018-06-29T12:35:46.334Z,43.10
2018-06-29T12:38:15.401Z,43.50
2018-06-29T12:40:44.549Z,42.40
2018-06-29T12:43:13.960Z,42.50
2018-06-29T12:45:43.217Z,42.20
2018-06-29T12:48:12.253Z,42.50
2018-06-29T12:50:41.289Z,42.10
2018-06-29T12:53:10.460Z,42.70
2018-06-29T12:55:39.625Z,43.10
2018-06-29T12:58:08.837Z,42.80
2018-06-29T13:00:37.872Z,43.50
2018-06-29T13:03:06.920Z,43.20
2018-06-29T13:05:35.953Z,42.50
2018-06-29T13:08:04.960Z,42.30
2018-06-29T13:10:33.964Z,41.80
2018-06-29T13:13:02.926Z,41.40
2018-06-29T13:15:31.988Z,42.70
2018-06-29T13:18:01.174Z,41.70
2018-06-29T13:20:30.446Z,41.00
2018-06-29T13:25:28.036Z,40.20
2018-06-29T13:27:57.026Z,40.70
2018-06-29T13:30:26.032Z,40.60
2018-06-29T13:32:55.034Z,40.20
2018-06-29T13:35:24.271Z,40.00
2018-06-29T13:37:53.228Z,39.40
2018-06-29T13:40:22.254Z,40.90
2018-06-29T13:42:51.342Z,41.90
2018-06-29T13:45:20.316Z,41.20
2018-06-29T13:47:49.260Z,40.30
2018-06-29T13:50:18.245Z,41.00
2018-06-29T13:52:47.303Z,41.00
2018-06-29T13:55:16.300Z,41.20
2018-06-29T13:57:45.284Z,42.00
2018-06-29T14:00:14.329Z,41.20
2018-06-29T14:02:43.291Z,39.40
2018-06-29T14:05:12.241Z,39.90
2018-06-29T14:07:41.875Z,40.10
2018-06-29T14:10:10.907Z,41.00
2018-06-29T14:12:39.869Z,40.30
2018-06-29T14:15:08.957Z,40.80
2018-06-29T14:17:37.928Z,40.00
2018-06-29T14:20:07.139Z,41.20
2018-06-29T14:22:36.225Z,39.30
2018-06-29T14:25:05.253Z,39.70
2018-06-29T14:27:34.433Z,38.90
2018-06-29T14:30:03.768Z,39.00
2018-06-29T14:32:32.867Z,40.10
2018-06-29T14:35:01.862Z,39.90
2018-06-29T14:37:30.917Z,39.10
2018-06-29T14:40:00.054Z,39.10
2018-06-29T14:42:29.207Z,39.80
2018-06-29T14:44:58.306Z,37.80
2018-06-29T14:47:27.405Z,37.70
2018-06-29T14:49:56.513Z,38.90
2018-06-29T14:52:25.554Z,37.80
2018-06-29T14:54:54.633Z,36.80
2018-06-29T14:57:23.756Z,37.10
2018-06-29T14:59:52.729Z,37.20
2018-06-29T15:02:21.909Z,38.40
2018-06-29T15:04:50.872Z,37.90
2018-06-29T15:07:19.850Z,37.40
2018-06-29T15:09:48.857Z,35.60
2018-06-29T15:12:17.862Z,36.90
2018-06-29T15:14:46.905Z,35.00
2018-06-29T15:17:15.973Z,35.80
2018-06-29T15:19:44.969Z,35.00
2018-06-29T15:22:14.224Z,33.80
2018-06-29T15:24:43.365Z,35.20
2018-06-29T15:27:12.424Z,35.00
2018-06-29T15:32:10.105Z,35.20
2018-06-29T15:34:39.265Z,35.40
2018-06-29T15:37:08.577Z,36.40
2018-06-29T15:39:37.556Z,33.90
2018-06-29T15:42:06.888Z,34.80
2018-06-29T15:44:35.869Z,36.10
2018-06-29T15:47:05.189Z,34.30
2018-06-29T15:49:34.613Z,36.00
2018-06-29T15:52:03.628Z,34.50
2018-06-29T15:54:32.643Z,35.70
2018-06-29T15:57:01.669Z,35.40
2018-06-29T15:59:30.637Z,35.30
2018-06-29T16:01:59.712Z,35.20
2018-06-29T16:04:28.760Z,35.60
2018-06-29T16:06:57.793Z,35.00
2018-06-29T16:09:26.768Z,36.00
2018-06-29T16:11:56.122Z,34.80
2018-06-29T16:14:25.154Z,35.40
2018-06-29T16:16:54.167Z,34.80
2018-06-29T16:19:23.233Z,35.80
2018-06-29T16:21:52.335Z,34.70
2018-06-29T16:24:22.053Z,34.80
2018-06-29T16:26:51.425Z,34.50
2018-06-29T16:29:20.499Z,35.60
2018-06-29T16:31:49.522Z,36.30
2018-06-29T16:34:18.600Z,36.80
2018-06-29T16:36:47.604Z,34.90
2018-06-29T16:41:45.282Z,34.90
2018-06-29T16:44:14.350Z,36.80
2018-06-29T16:46:43.296Z,36.10
2018-06-29T16:49:12.338Z,37.00
2018-06-29T16:54:09.980Z,35.80
2018-06-29T16:56:39.052Z,35.10
2018-06-29T16:59:08.146Z,35.70
2018-06-29T17:01:37.220Z,35.60
2018-06-29T17:04:06.185Z,35.00
2018-06-29T17:06:35.215Z,36.00
2018-06-29T17:09:06.534Z,35.90
2018-06-29T17:11:35.550Z,36.10
2018-06-29T17:14:04.678Z,35.90
2018-06-29T17:16:33.765Z,35.30
2018-06-29T17:19:02.856Z,36.40
2018-06-29T17:21:31.849Z,36.20
2018-06-29T17:24:00.970Z,35.50
2018-06-29T17:26:30.011Z,35.60
2018-06-29T17:28:59.055Z,36.60
2018-06-29T17:31:28.049Z,35.80
2018-06-29T17:33:57.148Z,35.00
2018-06-29T17:36:26.074Z,35.00
2018-06-29T17:38:55.095Z,35.60
2018-06-29T17:41:24.067Z,35.20
2018-06-29T17:43:53.190Z,35.60
2018-06-29T17:46:22.157Z,36.60
2018-06-29T17:48:51.151Z,36.40
2018-06-29T17:51:20.146Z,36.10
2018-06-29T17:53:49.277Z,37.00
2018-06-29T17:56:18.324Z,36.60
2018-06-29T17:58:47.345Z,35.40
2018-06-29T18:01:16.330Z,35.70
2018-06-29T18:03:45.503Z,35.40
2018-06-29T18:06:14.755Z,35.20
2018-06-29T18:08:43.742Z,36.00
2018-06-29T18:11:12.793Z,35.60
2018-06-29T18:13:41.794Z,35.80
2018-06-29T18:16:10.799Z,35.40
2018-06-29T18:18:39.821Z,36.20
2018-06-29T18:21:08.818Z,35.90
2018-06-29T18:23:37.805Z,36.50
2018-06-29T18:26:06.783Z,37.00
2018-06-29T18:28:35.941Z,37.20
2018-06-29T18:31:05.038Z,37.70
2018-06-29T18:33:34.013Z,37.60
2018-06-29T18:36:03.081Z,37.80
2018-06-29T18:38:32.109Z,37.90
2018-06-29T18:41:01.172Z,38.10
2018-06-29T18:43:30.249Z,38.20
2018-06-29T18:45:59.233Z,38.00
2018-06-29T18:48:28.274Z,38.00
2018-06-29T18:50:57.299Z,38.10
2018-06-29T18:53:45.573Z,38.00
2018-06-29T18:56:14.608Z,38.90
2018-06-29T18:58:43.769Z,38.00
2018-06-29T19:03:41.408Z,38.40
2018-06-29T19:06:10.389Z,38.80
2018-06-29T19:08:40.030Z,38.60
2018-06-29T19:11:10.039Z,39.30
2018-06-29T19:13:38.986Z,39.20
2018-06-29T19:16:08.101Z,40.60
2018-06-29T19:18:37.131Z,42.40
2018-06-29T19:21:06.359Z,43.10
2018-06-29T19:23:35.365Z,44.30
2018-06-29T19:26:04.454Z,44.30
2018-06-29T19:28:33.416Z,45.60
2018-06-29T19:31:02.471Z,45.80
2018-06-29T19:33:31.491Z,46.60
2018-06-29T19:40:57.768Z,48.50
2018-06-29T19:43:26.742Z,48.40
2018-06-29T19:45:55.722Z,48.20
2018-06-29T19:48:24.722Z,47.50
2018-06-29T19:50:53.803Z,49.50
2018-06-29T19:53:22.798Z,49.20
2018-06-29T19:55:51.861Z,50.60
2018-06-29T19:58:20.894Z,50.60
2018-06-29T20:00:49.947Z,51.60
2018-06-29T20:03:19.433Z,49.70
2018-06-29T20:05:48.492Z,50.90
2018-06-29T20:08:17.993Z,52.10
2018-06-29T20:10:47.042Z,53.00
2018-06-29T20:13:16.062Z,52.00
2018-06-29T20:15:45.056Z,53.00
2018-06-29T20:18:14.022Z,53.80
2018-06-29T20:20:43.099Z,54.10
2018-06-29T20:23:12.078Z,54.20
2018-06-29T20:25:41.110Z,54.50
2018-06-29T20:28:10.162Z,54.50
2018-06-29T20:30:39.174Z,55.10
2018-06-29T20:33:08.261Z,55.40
2018-06-29T20:35:37.252Z,55.30
2018-06-29T20:38:06.977Z,55.20
2018-06-29T20:40:35.968Z,55.20
2018-06-29T20:43:05.240Z,55.50
2018-06-29T20:45:34.246Z,55.30
2018-06-29T20:48:03.260Z,55.10
2018-06-29T20:50:32.376Z,55.70
2018-06-29T20:53:01.434Z,56.50
2018-06-29T20:55:30.425Z,55.90
2018-06-29T20:57:59.390Z,55.90
2018-06-29T21:00:28.413Z,55.00
2018-06-29T21:02:57.462Z,56.00
2018-06-29T21:05:26.442Z,56.50
2018-06-29T21:07:55.398Z,54.80
2018-06-29T21:10:24.427Z,55.60
2018-06-29T21:12:53.465Z,56.80
2018-06-29T21:15:22.486Z,55.80
2018-06-29T21:17:51.656Z,56.90
2018-06-29T21:20:20.800Z,56.20
2018-06-29T21:22:49.796Z,56.60
2018-06-29T21:25:18.835Z,55.80
2018-06-29T21:27:47.809Z,54.40
2018-06-29T21:30:16.802Z,56.70
2018-06-29T21:32:46.091Z,55.30
2018-06-29T21:35:15.067Z,56.80
2018-06-29T21:37:44.075Z,56.80
2018-06-29T21:40:13.097Z,55.50
2018-06-29T21:42:42.140Z,57.40
2018-06-29T21:45:11.190Z,56.60
2018-06-29T21:47:40.161Z,58.20
2018-06-29T21:50:09.493Z,56.90
2018-06-29T21:52:38.578Z,57.10
2018-06-29T21:55:08.436Z,56.10
2018-06-29T22:00:08.792Z,58.00
2018-06-29T22:02:38.114Z,56.60
2018-06-29T22:05:07.257Z,57.90
2018-06-29T22:07:36.365Z,58.00
2018-06-29T22:10:06.329Z,58.80
2018-06-29T22:12:35.385Z,58.40
2018-06-29T22:15:04.617Z,58.40
2018-06-29T22:17:33.646Z,58.80
2018-06-29T22:20:02.687Z,59.30
2018-06-29T22:22:31.729Z,59.10
2018-06-29T22:25:00.693Z,58.30
2018-06-29T22:27:29.689Z,59.10
2018-06-29T22:29:58.717Z,58.90
2018-06-29T22:32:27.731Z,59.40
2018-06-29T22:34:56.701Z,58.70
2018-06-29T22:37:25.673Z,60.50
2018-06-29T22:39:54.670Z,59.30
2018-06-29T22:42:23.733Z,59.60
2018-06-29T22:44:52.736Z,59.00
2018-06-29T22:47:21.724Z,59.00
2018-06-29T22:49:50.725Z,60.00
2018-06-29T22:52:19.719Z,60.30
2018-06-29T22:54:48.713Z,58.20
2018-06-29T22:57:17.720Z,59.10
2018-06-29T22:59:46.725Z,59.30
2018-06-29T23:02:15.709Z,58.60
2018-06-29T23:04:44.779Z,59.60
2018-06-29T23:07:13.967Z,59.40
2018-06-29T23:09:42.934Z,58.20
2018-06-29T23:12:12.049Z,59.40
2018-06-29T23:14:41.042Z,59.30
2018-06-29T23:17:10.013Z,58.70
2018-06-29T23:19:39.107Z,58.70
2018-06-29T23:22:08.100Z,58.60
2018-06-29T23:24:37.113Z,59.80
2018-06-29T23:27:06.091Z,59.00
2018-06-29T23:29:35.045Z,59.10
2018-06-29T23:32:04.732Z,60.50
2018-06-29T23:34:33.719Z,60.00
2018-06-29T23:37:02.717Z,62.20
2018-06-29T23:39:31.747Z,62.00
2018-06-29T23:42:00.718Z,60.20
2018-06-29T23:44:29.798Z,61.70
2018-06-29T23:46:58.780Z,62.20
2018-06-29T23:49:27.752Z,62.50
2018-06-29T23:51:56.773Z,60.60
2018-06-29T23:54:25.860Z,61.20
2018-06-29T23:56:54.836Z,64.30
2018-06-29T23:59:23.834Z,62.50
